Time;durP1;ratioP1;P1;durP2;ratioP2;P2;SDS_P1;SDS_P2;PMS_P1;PMS_P2;Temp;Humidity;BMP_temperature;BMP_pressure;BME280_temperature;BME280_humidity;BME280_pressure;Samples;Min_cycle;Max_cycle;Signal;HPM_P1;HPM_P2
2023/04/29 00:00:50;;;;;;;5.93;3.78;;;;;;;18.79;52.82;101089.75;4955732;28;20038;-82
2023/04/29 00:03:20;;;;;;;7.15;3.97;;;;;;;18.32;52.89;101025.31;4945526;28;20064;-82
2023/04/29 00:05:48;;;;;;;12.00;6.75;;;;;;;18.07;54.76;101017.38;4931005;28;20490;-81
2023/04/29 00:08:18;;;;;;;14.23;11.98;;;;;;;18.42;56.90;101103.88;4920907;28;20298;-80
2023/04/29 00:10:44;;;;;;;17.60;13.23;;;;;;;18.40;57.97;101127.41;4950274;28;20476;-82
2023/04/29 00:13:12;;;;;;;15.40;12.90;;;;;;;17.62;58.87;101015.34;4940574;28;20126;-82
2023/04/29 00:15:40;;;;;;;16.98;12.63;;;;;;;18.07;59.95;101099.84;4940288;28;20066;-82
2023/04/29 00:18:08;;;;;;;22.90;13.73;;;;;;;18.13;59.86;101105.34;4939202;28;20527;-81
2023/04/29 00:20:36;;;;;;;21.65;14.38;;;;;;;18.09;60.22;101104.00;4939080;28;20050;-81
2023/04/29 00:23:03;;;;;;;16.75;13.13;;;;;;;18.01;60.49;101113.94;4939482;28;20667;-82
2023/04/29 00:25:30;;;;;;;19.63;14.07;;;;;;;17.80;60.82;101087.63;4939788;28;20101;-82
2023/04/29 00:28:00;;;;;;;20.35;15.10;;;;;;;17.95;61.19;101102.03;4922989;28;20100;-81
2023/04/29 00:30:33;;;;;;;16.30;14.20;;;;;;;17.13;61.40;100976.03;4954269;28;20050;-80
2023/04/29 00:33:02;;;;;;;17.75;15.07;;;;;;;17.48;62.28;101051.78;4974625;28;20046;-81
2023/04/29 00:35:29;;;;;;;20.40;16.40;;;;;;;17.77;62.07;101106.75;4958774;28;20062;-81
2023/04/29 00:37:57;;;;;;;21.83;15.88;;;;;;;17.67;62.26;101091.69;4960234;28;20379;-81
2023/04/29 00:40:23;;;;;;;20.33;16.58;;;;;;;17.68;62.75;101096.03;4946058;28;20046;-82
2023/04/29 00:42:50;;;;;;;24.30;17.38;;;;;;;16.81;62.43;100948.25;4960427;28;20121;-82
2023/04/29 00:45:19;;;;;;;22.33;17.95;;;;;;;17.64;62.54;101083.13;4952890;28;20061;-81
2023/04/29 00:47:49;;;;;;;26.10;19.48;;;;;;;17.60;63.13;101077.28;4955967;28;20438;-83
2023/04/29 00:50:17;;;;;;;23.58;19.60;;;;;;;17.34;63.01;101031.84;4946545;28;20076;-82
2023/04/29 00:52:50;;;;;;;29.02;19.80;;;;;;;17.41;63.12;101054.31;4970235;28;20050;-83
2023/04/29 00:55:18;;;;;;;23.95;20.20;;;;;;;16.51;63.77;100920.25;4944927;28;20078;-81
2023/04/29 00:57:51;;;;;;;25.52;20.80;;;;;;;17.16;63.70;101029.38;4957631;28;20061;-82
2023/04/29 01:00:19;;;;;;;30.60;21.40;;;;;;;17.34;64.00;101071.28;4934548;28;20050;-82
2023/04/29 01:02:48;;;;;;;24.77;20.98;;;;;;;16.72;64.20;100970.66;4953609;28;20062;-82
2023/04/29 01:05:18;;;;;;;25.60;20.83;;;;;;;17.21;64.47;101064.56;4951809;28;20060;-81
2023/04/29 01:08:09;;;;;;;26.95;21.63;;;;;;;17.24;64.77;101074.97;4938367;28;20057;-81
2023/04/29 01:10:43;;;;;;;30.23;22.60;;;;;;;17.02;65.18;101063.06;4936716;28;20046;-80
2023/04/29 01:13:45;;;;;;;33.58;21.52;;;;;;;17.14;65.05;101101.13;4955237;28;20312;-82
2023/04/29 01:16:46;;;;;;;28.50;21.23;;;;;;;16.98;65.49;101076.97;4909008;28;20397;-81
2023/04/29 01:19:45;;;;;;;27.48;21.80;;;;;;;16.73;65.64;101051.94;4919285;28;20303;-82
2023/04/29 01:22:13;;;;;;;24.75;22.10;;;;;;;16.97;65.53;101107.50;4933987;28;20438;-81
2023/04/29 01:24:45;;;;;;;27.40;21.35;;;;;;;16.99;65.70;101108.13;4933700;28;20054;-82
2023/04/29 01:27:53;;;;;;;31.88;21.77;;;;;;;16.91;66.29;101114.34;4941933;28;20289;-81
2023/04/29 01:30:41;;;;;;;31.77;22.58;;;;;;;16.86;66.25;101112.16;4966718;28;20097;-83
2023/04/29 01:33:30;;;;;;;26.67;22.30;;;;;;;16.75;66.64;101115.13;4972596;28;20152;-83
2023/04/29 01:36:18;;;;;;;26.90;22.65;;;;;;;16.82;66.88;101118.88;4941695;28;20430;-83
2023/04/29 01:39:10;;;;;;;25.83;21.90;;;;;;;16.56;66.96;101083.25;4962919;28;20054;-84
2023/04/29 01:41:51;;;;;;;25.48;22.13;;;;;;;16.67;66.83;101090.97;4972102;28;20081;-82
2023/04/29 01:44:23;;;;;;;27.38;22.13;;;;;;;16.48;66.82;101043.88;4961149;28;20042;-82
2023/04/29 01:46:52;;;;;;;27.23;24.00;;;;;;;15.85;66.81;100956.81;4944420;28;20054;-82
2023/04/29 01:49:27;;;;;;;26.77;23.60;;;;;;;16.81;66.93;101090.34;4946958;28;20054;-83
2023/04/29 01:51:54;;;;;;;26.27;22.13;;;;;;;16.56;66.69;101040.38;4908527;28;20117;-81
2023/04/29 01:54:25;;;;;;;30.17;22.38;;;;;;;16.60;67.21;101065.81;4948052;28;20120;-82
2023/04/29 01:56:52;;;;;;;28.63;22.13;;;;;;;16.55;66.82;101052.06;4935373;28;20046;-81
2023/04/29 01:59:20;;;;;;;23.90;20.85;;;;;;;16.64;66.22;101043.06;4930000;28;20104;-82
2023/04/29 02:01:47;;;;;;;22.77;20.10;;;;;;;16.64;66.64;101051.94;4971716;28;20041;-82
2023/04/29 02:04:15;;;;;;;26.25;20.92;;;;;;;16.62;66.45;101042.38;4972788;28;20203;-82
2023/04/29 02:06:45;;;;;;;27.45;19.40;;;;;;;16.77;66.57;101070.22;4950241;28;20050;-82
2023/04/29 02:09:12;;;;;;;22.67;18.73;;;;;;;16.67;66.28;101045.38;4945335;28;20133;-81
2023/04/29 02:11:38;;;;;;;29.77;19.30;;;;;;;16.91;66.39;101075.97;4949426;28;20557;-82
2023/04/29 02:14:05;;;;;;;27.13;19.83;;;;;;;16.71;65.90;101035.19;4962524;28;20081;-82
2023/04/29 02:16:37;;;;;;;23.55;18.23;;;;;;;16.98;66.00;101082.34;4963824;28;20618;-82
2023/04/29 02:19:04;;;;;;;25.63;19.52;;;;;;;16.85;65.87;101051.50;4940876;28;20058;-81
2023/04/29 02:21:30;;;;;;;25.17;20.65;;;;;;;16.88;65.98;101047.63;4963111;28;20058;-82
2023/04/29 02:24:00;;;;;;;27.85;22.23;;;;;;;17.09;65.83;101079.34;4935453;28;20113;-82
2023/04/29 02:26:27;;;;;;;25.17;20.08;;;;;;;16.85;65.99;101035.41;4950617;28;20054;-82
2023/04/29 02:28:58;;;;;;;27.92;21.17;;;;;;;16.99;65.74;101062.53;4958970;28;20053;-82
2023/04/29 02:31:28;;;;;;;34.53;22.75;;;;;;;17.13;66.35;101086.03;4989509;28;20471;-82
2023/04/29 02:33:55;;;;;;;28.67;21.17;;;;;;;16.83;65.92;101041.94;4979261;28;20046;-82
2023/04/29 02:36:21;;;;;;;29.55;23.10;;;;;;;16.95;65.88;101056.69;4970808;28;20060;-82
2023/04/29 02:38:49;;;;;;;31.83;22.80;;;;;;;17.14;66.14;101082.34;4958849;28;20046;-81
2023/04/29 02:41:26;;;;;;;28.90;21.77;;;;;;;17.12;66.09;101057.53;4946180;28;20263;-81
2023/04/29 02:44:02;;;;;;;29.42;22.27;;;;;;;17.18;65.82;101061.38;4935540;28;20143;-80
2023/04/29 02:46:31;;;;;;;30.92;22.83;;;;;;;16.84;65.91;101006.06;4924117;28;20050;-81
2023/04/29 02:48:58;;;;;;;29.60;22.90;;;;;;;17.20;65.61;101057.50;4956771;28;20420;-81
2023/04/29 02:51:25;;;;;;;31.55;21.08;;;;;;;17.14;65.27;101034.06;4940459;28;20104;-81
2023/04/29 02:53:52;;;;;;;31.23;20.45;;;;;;;17.21;65.74;101056.53;4959131;28;20485;-82
2023/04/29 02:56:18;;;;;;;25.80;20.13;;;;;;;17.13;65.21;101043.09;4943277;28;20054;-82
2023/04/29 02:58:45;;;;;;;28.88;20.40;;;;;;;17.13;65.14;101048.47;4952906;28;20046;-82
2023/04/29 03:01:12;;;;;;;24.70;19.48;;;;;;;17.19;65.59;101066.59;4957386;28;20792;-83
2023/04/29 03:03:41;;;;;;;28.33;19.95;;;;;;;17.06;65.58;101042.09;4975729;28;20412;-82
2023/04/29 03:06:09;;;;;;;25.50;17.73;;;;;;;17.07;65.17;101043.78;4957580;28;20054;-81
2023/04/29 03:08:36;;;;;;;27.02;18.40;;;;;;;17.20;64.87;101054.00;4959752;28;20374;-82
2023/04/29 03:11:05;;;;;;;27.92;18.27;;;;;;;17.20;65.09;101054.84;4946219;28;20057;-81
2023/04/29 03:13:41;;;;;;;22.65;18.33;;;;;;;17.15;65.20;101042.94;4928749;28;20451;-82
2023/04/29 03:16:09;;;;;;;23.40;17.05;;;;;;;17.23;65.31;101043.78;4921464;28;20073;-82
2023/04/29 03:18:36;;;;;;;27.40;18.02;;;;;;;17.33;64.85;101037.38;4924867;28;20436;-81
2023/04/29 03:21:03;;;;;;;24.80;18.65;;;;;;;17.19;64.99;101026.34;4950139;28;20333;-82
2023/04/29 03:23:30;;;;;;;27.45;16.73;;;;;;;17.09;64.95;101005.06;4954095;28;20047;-82
2023/04/29 03:25:57;;;;;;;26.63;17.52;;;;;;;17.02;64.67;101000.53;4938754;28;20046;-82
2023/04/29 03:28:24;;;;;;;26.27;18.13;;;;;;;16.98;65.08;101017.97;4943743;28;20519;-83
2023/04/29 03:30:51;;;;;;;26.60;17.23;;;;;;;17.10;65.54;101054.16;4981436;28;20503;-81
2023/04/29 03:33:21;;;;;;;21.23;16.15;;;;;;;17.07;65.87;101049.16;4951052;28;20061;-82
2023/04/29 03:35:49;;;;;;;19.13;15.77;;;;;;;16.98;65.56;101034.06;4954417;28;20062;-81
2023/04/29 03:38:19;;;;;;;21.77;15.85;;;;;;;17.06;64.98;101048.31;4957393;28;20049;-81
2023/04/29 03:40:45;;;;;;;20.02;12.57;;;;;;;16.03;64.27;100869.16;4962691;28;20060;-80
2023/04/29 03:43:16;;;;;;;22.05;14.45;;;;;;;17.13;64.61;101032.38;4942061;28;20050;-81
2023/04/29 03:45:42;;;;;;;12.43;10.00;;;;;;;16.77;64.52;100994.28;4931554;28;20388;-82
2023/04/29 03:48:09;;;;;;;15.13;12.05;;;;;;;17.06;64.04;101026.84;4943850;28;20379;-82
2023/04/29 03:50:39;;;;;;;22.20;14.07;;;;;;;17.20;63.86;101038.72;4940875;28;20112;-81
2023/04/29 03:53:06;;;;;;;20.02;14.82;;;;;;;17.17;63.95;101033.72;4934611;28;20058;-81
2023/04/29 03:55:33;;;;;;;22.48;15.10;;;;;;;16.76;63.97;100972.00;4951322;28;20428;-82
2023/04/29 03:58:06;;;;;;;19.45;16.13;;;;;;;17.13;64.60;101037.72;4942100;28;20082;-82
2023/04/29 04:00:37;;;;;;;23.40;16.42;;;;;;;17.11;64.35;101033.53;4914174;28;20054;-82
2023/04/29 04:03:07;;;;;;;20.48;15.55;;;;;;;17.09;64.44;101028.38;4916051;29;20470;-81
2023/04/29 04:05:34;;;;;;;23.80;15.90;;;;;;;17.09;64.75;101023.84;4920355;28;20114;-82
2023/04/29 04:08:01;;;;;;;22.50;15.95;;;;;;;16.94;64.80;100990.63;4919171;28;20047;-82
2023/04/29 04:10:28;;;;;;;20.80;15.98;;;;;;;17.08;64.97;101024.81;4940723;28;20511;-82
2023/04/29 04:12:58;;;;;;;24.98;20.10;;;;;;;16.96;65.45;101014.63;4923686;28;20055;-82
2023/04/29 04:15:25;;;;;;;27.17;20.13;;;;;;;16.92;65.53;100999.84;4926893;28;20842;-81
2023/04/29 04:17:55;;;;;;;30.27;19.67;;;;;;;16.79;66.04;101001.19;4917949;28;20051;-81
2023/04/29 04:20:22;;;;;;;29.45;20.60;;;;;;;16.83;65.84;101013.28;4927713;28;20158;-82
2023/04/29 04:22:50;;;;;;;29.20;22.08;;;;;;;16.69;66.58;101008.53;4938210;28;20059;-81
2023/04/29 04:25:17;;;;;;;26.90;21.02;;;;;;;16.87;66.65;101046.81;4930759;28;20047;-82
2023/04/29 04:27:43;;;;;;;33.08;20.50;;;;;;;16.86;66.63;101050.47;4927869;28;20113;-80
2023/04/29 04:30:11;;;;;;;24.67;20.92;;;;;;;16.59;66.91;101008.69;4924166;28;20126;-81
2023/04/29 04:32:38;;;;;;;25.40;21.27;;;;;;;16.73;66.75;101020.63;4934924;28;20577;-82
2023/04/29 04:35:06;;;;;;;30.60;21.90;;;;;;;16.66;66.44;101008.88;4943637;28;20144;-80
2023/04/29 04:37:33;;;;;;;28.83;22.25;;;;;;;16.70;66.91;101026.31;4937200;28;20098;-82
2023/04/29 04:40:07;;;;;;;27.58;22.08;;;;;;;16.85;66.86;101051.50;4951406;28;20276;-81
2023/04/29 04:42:42;;;;;;;28.13;24.10;;;;;;;16.61;67.07;101016.59;4958227;28;20046;-81
2023/04/29 04:45:11;;;;;;;31.02;22.77;;;;;;;16.84;67.04;101065.88;4935781;28;20457;-81
2023/04/29 04:47:40;;;;;;;28.15;22.83;;;;;;;16.81;67.19;101060.84;4935445;28;20058;-82
2023/04/29 04:50:07;;;;;;;27.77;22.80;;;;;;;16.26;67.26;100983.69;4977508;28;20061;-82
2023/04/29 04:52:34;;;;;;;30.77;21.80;;;;;;;16.69;67.36;101051.44;4958860;28;20133;-80
2023/04/29 04:55:01;;;;;;;27.23;20.88;;;;;;;16.09;67.02;100947.16;4963147;28;20054;-81
2023/04/29 04:57:29;;;;;;;27.92;22.48;;;;;;;16.80;67.01;101069.91;4956575;28;20054;-81
2023/04/29 04:59:56;;;;;;;31.17;22.77;;;;;;;16.67;67.12;101056.97;4957499;28;20404;-82
2023/04/29 05:02:23;;;;;;;31.63;23.75;;;;;;;16.59;67.56;101061.47;4951094;28;20047;-82
2023/04/29 05:04:50;;;;;;;31.83;23.10;;;;;;;16.50;67.88;101054.41;4944723;28;20055;-81
2023/04/29 05:07:16;;;;;;;29.63;23.90;;;;;;;16.15;67.53;100992.03;4950382;28;20337;-80
2023/04/29 05:09:43;;;;;;;30.27;24.98;;;;;;;16.72;67.51;101083.25;4937951;28;20046;-82
2023/04/29 05:12:10;;;;;;;30.58;23.65;;;;;;;16.76;67.29;101083.78;4944696;28;20424;-81
2023/04/29 05:14:36;;;;;;;32.22;23.77;;;;;;;16.76;67.36;101084.63;4955374;28;20141;-81
2023/04/29 05:17:03;;;;;;;30.75;23.48;;;;;;;16.60;67.99;101057.78;4945235;28;20070;-81
2023/04/29 05:19:30;;;;;;;32.85;24.35;;;;;;;16.78;67.14;101065.69;4942852;28;20054;-81
2023/04/29 05:22:02;;;;;;;30.67;23.63;;;;;;;16.76;67.40;101067.69;4951301;28;20042;-81
2023/04/29 05:24:32;;;;;;;29.75;23.02;;;;;;;16.76;67.41;101073.91;4929960;28;20055;-82
2023/04/29 05:26:58;;;;;;;34.13;23.35;;;;;;;16.51;67.41;101048.06;4910696;28;20174;-82
2023/04/29 05:29:26;;;;;;;29.60;21.83;;;;;;;16.58;67.38;101057.97;4942629;28;20047;-81
2023/04/29 05:31:52;;;;;;;27.55;21.63;;;;;;;16.71;67.31;101076.22;4989823;28;20125;-82
2023/04/29 05:34:19;;;;;;;26.42;21.75;;;;;;;16.79;67.19;101083.47;4951346;28;20473;-82
2023/04/29 05:36:49;;;;;;;31.00;22.45;;;;;;;16.72;67.44;101061.81;4955157;28;20397;-82
2023/04/29 05:39:16;;;;;;;26.85;20.88;;;;;;;16.73;67.08;101060.00;4978398;28;20287;-83
2023/04/29 05:41:48;;;;;;;26.05;18.00;;;;;;;16.97;66.63;101086.03;4974202;28;20051;-82
2023/04/29 05:44:15;;;;;;;26.85;16.58;;;;;;;17.01;66.24;101093.56;4965774;28;20046;-81
2023/04/29 05:46:45;;;;;;;21.55;16.30;;;;;;;17.07;65.88;101092.06;4963325;28;20046;-82
2023/04/29 05:49:15;;;;;;;18.30;15.38;;;;;;;16.86;65.51;101053.16;4960602;28;20141;-83
2023/04/29 05:51:41;;;;;;;18.75;14.10;;;;;;;17.11;65.57;101088.03;4966844;28;20060;-81
2023/04/29 05:54:08;;;;;;;24.88;13.13;;;;;;;17.15;65.24;101084.00;4960322;28;20614;-80
2023/04/29 05:56:35;;;;;;;24.08;13.55;;;;;;;16.91;65.32;101044.59;4946854;28;20054;-81
2023/04/29 05:59:03;;;;;;;17.25;13.15;;;;;;;17.06;65.28;101068.91;4940095;28;20129;-82
2023/04/29 06:01:31;;;;;;;20.15;13.60;;;;;;;17.17;65.21;101079.31;4962677;28;20367;-82
2023/04/29 06:03:59;;;;;;;23.00;14.18;;;;;;;16.56;64.79;100976.88;4976023;28;20050;-81
2023/04/29 06:06:26;;;;;;;19.80;14.63;;;;;;;16.35;64.89;100922.94;4931816;28;20093;-83
2023/04/29 06:08:54;;;;;;;21.45;14.35;;;;;;;17.01;65.05;101029.19;4941091;28;20051;-81
2023/04/29 06:11:24;;;;;;;16.90;13.95;;;;;;;17.13;64.96;101040.41;4927247;28;20912;-83
2023/04/29 06:13:56;;;;;;;19.15;14.38;;;;;;;17.42;64.38;101073.94;4915559;28;20285;-82
2023/04/29 06:16:32;;;;;;;21.98;15.90;;;;;;;17.34;64.48;101065.91;4942261;28;20134;-82
2023/04/29 06:19:02;;;;;;;23.85;16.40;;;;;;;17.27;64.22;101050.47;4936879;28;20059;-82
2023/04/29 06:21:30;;;;;;;24.23;15.95;;;;;;;16.68;64.34;100945.22;4932589;28;20459;-83
2023/04/29 06:23:57;;;;;;;25.95;16.13;;;;;;;17.37;64.03;101060.19;4956459;28;20185;-82
2023/04/29 06:26:26;;;;;;;28.05;16.58;;;;;;;17.26;64.13;101038.06;4929272;28;20069;-83
2023/04/29 06:28:56;;;;;;;23.17;15.38;;;;;;;17.62;64.51;101086.00;4949175;28;20493;-83
2023/04/29 06:31:24;;;;;;;24.00;16.40;;;;;;;17.18;64.04;101013.09;4932180;28;20420;-82
2023/04/29 06:33:54;;;;;;;20.73;16.70;;;;;;;17.54;64.03;101056.47;4920792;28;20051;-81
2023/04/29 06:36:21;;;;;;;23.25;17.05;;;;;;;17.11;63.96;100991.47;4908965;28;20055;-82
2023/04/29 06:38:56;;;;;;;30.17;18.40;;;;;;;17.50;64.39;101060.50;4946055;28;20047;-82
2023/04/29 06:41:27;;;;;;;22.50;18.38;;;;;;;17.06;64.03;100994.69;4930803;28;20051;-82
2023/04/29 06:43:57;;;;;;;22.80;20.20;;;;;;;17.67;64.13;101094.38;4914353;28;20047;-82
2023/04/29 06:46:26;;;;;;;23.83;18.73;;;;;;;17.40;64.44;101054.47;4884635;28;20062;-81
2023/04/29 06:48:53;;;;;;;27.30;19.00;;;;;;;17.81;64.18;101113.50;4916139;28;20069;-83
2023/04/29 06:51:23;;;;;;;27.75;19.83;;;;;;;17.76;64.35;101105.09;4931073;28;20043;-82
2023/04/29 06:53:50;;;;;;;27.65;20.95;;;;;;;17.54;64.38;101059.16;4918080;28;20684;-82
2023/04/29 06:56:17;;;;;;;30.25;21.20;;;;;;;17.57;64.39;101066.84;4930256;28;20340;-83
2023/04/29 06:58:44;;;;;;;25.70;19.25;;;;;;;17.63;64.35;101076.91;4965440;28;20208;-82
2023/04/29 07:01:11;;;;;;;25.38;19.25;;;;;;;17.81;64.67;101102.75;4949210;28;20389;-80
2023/04/29 07:03:42;;;;;;;26.15;20.85;;;;;;;17.82;64.76;101101.75;4931313;28;20161;-83
2023/04/29 07:06:09;;;;;;;25.92;18.67;;;;;;;17.89;64.67;101108.13;4936652;28;20061;-82
2023/04/29 07:08:36;;;;;;;26.63;17.65;;;;;;;17.58;64.75;101055.13;4955233;28;20126;-81
2023/04/29 07:11:03;;;;;;;21.90;16.85;;;;;;;17.99;64.69;101106.06;4926945;28;20042;-82
2023/04/29 07:13:31;;;;;;;25.65;17.17;;;;;;;17.32;64.76;100982.03;4941167;28;20398;-81
2023/04/29 07:15:58;;;;;;;24.17;17.42;;;;;;;17.82;64.12;101058.78;4933026;28;20058;-79
2023/04/29 07:18:27;;;;;;;22.58;16.10;;;;;;;18.07;64.29;101089.91;4943504;28;20054;-80
2023/04/29 07:20:54;;;;;;;22.23;16.75;;;;;;;18.08;63.91;101088.91;4930792;28;20054;-77
2023/04/29 07:23:21;;;;;;;23.55;16.75;;;;;;;17.75;63.91;101031.75;4935427;28;20521;-80
2023/04/29 07:25:51;;;;;;;25.35;16.80;;;;;;;17.85;64.01;101053.91;4947505;28;20042;-80
2023/04/29 07:28:17;;;;;;;41.28;26.63;;;;;;;18.12;64.21;101094.78;4955578;28;20424;-80
2023/04/29 07:30:44;;;;;;;26.20;16.88;;;;;;;18.19;64.28;101094.91;4977691;28;20069;-79
2023/04/29 07:33:11;;;;;;;22.50;15.90;;;;;;;18.29;64.24;101100.91;4968858;28;20622;-78
2023/04/29 07:35:40;;;;;;;22.33;14.95;;;;;;;18.06;64.08;101060.53;4931118;28;20522;-79
2023/04/29 07:38:14;;;;;;;16.27;13.45;;;;;;;18.20;63.60;101083.97;4968142;28;20248;-82
2023/04/29 07:40:41;;;;;;;24.65;15.88;;;;;;;18.42;63.72;101117.31;4959405;28;20382;-81
2023/04/29 07:43:10;;;;;;;25.38;16.95;;;;;;;17.17;63.84;100913.00;4956568;28;20051;-81
2023/04/29 07:45:37;;;;;;;21.15;14.40;;;;;;;18.53;63.80;101134.91;4941272;28;20133;-80
2023/04/29 07:48:05;;;;;;;26.55;15.63;;;;;;;18.40;63.10;101100.53;4951828;28;20039;-79
2023/04/29 07:50:35;;;;;;;18.77;15.57;;;;;;;18.53;64.67;101133.06;4948725;28;20054;-81
2023/04/29 07:53:06;;;;;;;20.98;16.00;;;;;;;18.57;65.09;101147.81;4936701;28;20090;-81
2023/04/29 07:55:36;;;;;;;19.33;15.95;;;;;;;18.57;64.61;101129.00;4939848;28;20061;-81
2023/04/29 07:58:03;;;;;;;32.70;19.20;;;;;;;18.49;64.23;101110.22;4943763;28;20058;-81
2023/04/29 08:00:30;;;;;;;28.38;20.15;;;;;;;18.73;65.50;101163.03;4944657;28;20142;-81
2023/04/29 08:03:00;;;;;;;25.50;21.27;;;;;;;18.73;65.06;101167.56;4897747;28;1152285;-81
2023/04/29 08:05:31;;;;;;;39.60;21.65;;;;;;;18.32;65.39;101108.63;4929002;28;20537;-81
2023/04/29 08:07:59;;;;;;;33.25;22.20;;;;;;;17.46;64.63;100958.03;4937399;28;20065;-81
2023/04/29 08:10:26;;;;;;;29.48;21.35;;;;;;;18.63;64.71;101158.88;4938758;28;20556;-82
2023/04/29 08:12:53;;;;;;;29.95;21.80;;;;;;;18.33;64.63;101121.06;4935386;28;20145;-83
2023/04/29 08:15:22;;;;;;;32.30;22.20;;;;;;;18.46;65.14;101142.00;4935401;28;20141;-84
2023/04/29 08:17:49;;;;;;;29.60;19.95;;;;;;;18.57;63.64;101145.13;4934815;28;20054;-83
2023/04/29 08:20:16;;;;;;;27.45;21.80;;;;;;;18.47;64.16;101139.16;4958930;28;20082;-83
2023/04/29 08:22:43;;;;;;;30.13;20.95;;;;;;;18.35;64.91;101121.72;4929991;28;20047;-80
2023/04/29 08:25:10;;;;;;;27.73;20.58;;;;;;;18.60;64.25;101159.25;4953387;28;20057;-80
2023/04/29 08:27:37;;;;;;;29.48;20.00;;;;;;;18.46;64.35;101123.19;4952119;28;20212;-81
2023/04/29 08:30:07;;;;;;;30.30;20.02;;;;;;;18.96;63.21;101165.81;4948312;28;20061;-81
2023/04/29 08:32:34;;;;;;;26.35;18.80;;;;;;;18.77;62.55;101134.81;4959808;28;20969;-80
2023/04/29 08:35:02;;;;;;;22.98;18.48;;;;;;;19.04;61.79;101158.69;4942255;28;20042;-81
2023/04/29 08:37:29;;;;;;;21.63;18.40;;;;;;;18.91;61.45;101133.22;4970660;28;20138;-80
2023/04/29 08:39:58;;;;;;;23.42;18.27;;;;;;;18.91;61.67;101133.22;4970893;28;20054;-80
2023/04/29 08:42:36;;;;;;;24.73;17.63;;;;;;;19.19;61.21;101181.13;4949718;28;20922;-80
2023/04/29 08:45:03;;;;;;;24.27;17.02;;;;;;;19.38;60.03;101188.72;4909150;29;20058;-80
2023/04/29 08:47:32;;;;;;;33.70;29.75;;;;;;;19.40;60.09;101184.00;4926821;28;20079;-83
2023/04/29 08:50:04;;;;;;;22.92;17.40;;;;;;;18.78;60.31;101088.06;4925174;28;20405;-82
2023/04/29 08:52:31;;;;;;;31.23;17.73;;;;;;;18.34;60.34;101017.91;4936312;28;20414;-83
2023/04/29 08:55:04;;;;;;;24.83;17.90;;;;;;;18.99;60.26;101106.25;4932836;28;20061;-82
2023/04/29 08:57:38;;;;;;;26.90;18.40;;;;;;;18.91;60.06;101095.56;4937080;28;20528;-82
2023/04/29 09:00:09;;;;;;;25.45;18.55;;;;;;;18.93;60.17;101104.28;4921411;28;20409;-82
2023/04/29 09:02:44;;;;;;;22.13;17.75;;;;;;;18.94;60.69;101097.03;4922760;28;20077;-81
2023/04/29 09:05:11;;;;;;;24.05;17.98;;;;;;;18.96;60.85;101111.16;4927215;28;20047;-83
2023/04/29 09:07:39;;;;;;;24.08;16.70;;;;;;;19.31;60.32;101150.06;4947321;28;20336;-82
2023/04/29 09:10:11;;;;;;;28.20;16.25;;;;;;;19.38;60.35;101177.94;4928555;28;20571;-82
2023/04/29 09:12:38;;;;;;;25.40;16.40;;;;;;;19.46;60.13;101182.41;4934531;28;20052;-82
2023/04/29 09:15:06;;;;;;;23.98;16.73;;;;;;;19.06;60.28;101117.13;4958786;28;20101;-83
2023/04/29 09:17:43;;;;;;;18.52;15.48;;;;;;;19.42;60.29;101183.81;4956728;28;20050;-82
2023/04/29 09:20:20;;;;;;;24.23;16.75;;;;;;;19.11;60.71;101133.56;4931238;28;20069;-83
2023/04/29 09:22:49;;;;;;;23.25;17.00;;;;;;;18.76;60.46;101078.50;4946508;28;20042;-83
2023/04/29 09:25:16;;;;;;;21.02;16.10;;;;;;;18.83;60.89;101084.84;4950813;28;20416;-83
2023/04/29 09:27:43;;;;;;;24.85;16.63;;;;;;;18.12;60.18;100966.63;4965123;28;20351;-82
2023/04/29 09:30:12;;;;;;;23.13;16.85;;;;;;;19.49;60.65;101176.69;4962750;28;20053;-81
2023/04/29 09:32:38;;;;;;;21.95;16.08;;;;;;;19.18;60.74;101120.25;4960315;28;20537;-82
2023/04/29 09:35:26;;;;;;;21.77;17.27;;;;;;;19.53;60.19;101172.59;4937990;28;20085;-82
2023/04/29 09:38:06;;;;;;;25.40;17.08;;;;;;;19.51;60.41;101163.88;4939241;28;20452;-82
2023/04/29 09:40:38;;;;;;;29.40;18.75;;;;;;;19.16;60.77;101106.13;4941424;28;20115;-81
2023/04/29 09:43:23;;;;;;;23.48;17.75;;;;;;;19.61;60.11;101171.69;4947211;28;20270;-81
2023/04/29 09:45:50;;;;;;;23.20;17.17;;;;;;;19.23;60.10;101104.38;4932098;28;20046;-82
2023/04/29 09:48:17;;;;;;;37.17;20.15;;;;;;;18.71;60.74;101022.50;4915712;28;20411;-82
2023/04/29 09:51:00;;;;;;;26.63;18.85;;;;;;;19.59;60.62;101149.53;4919662;28;20046;-83
2023/04/29 09:53:30;;;;;;;27.30;20.17;;;;;;;19.72;60.35;101163.22;4949494;28;20819;-82
2023/04/29 09:56:01;;;;;;;25.73;20.65;;;;;;;19.28;60.58;101099.28;4936705;28;20376;-82
2023/04/29 09:58:37;;;;;;;25.20;20.33;;;;;;;19.51;60.37;101131.56;4954286;28;20242;-82
2023/04/29 10:01:06;;;;;;;31.30;19.58;;;;;;;19.65;60.73;101159.53;4953507;28;20050;-83
2023/04/29 10:03:38;;;;;;;34.38;22.10;;;;;;;19.59;60.83;101160.28;4933137;28;20077;-81
2023/04/29 10:06:11;;;;;;;31.70;22.50;;;;;;;19.41;61.23;101131.81;4931216;28;20063;-82
2023/04/29 10:08:43;;;;;;;38.58;23.70;;;;;;;19.53;62.45;101153.75;4925490;28;20412;-82
2023/04/29 10:11:16;;;;;;;34.13;24.30;;;;;;;19.51;63.62;101152.25;4933068;28;20203;-81
2023/04/29 10:13:49;;;;;;;32.28;24.15;;;;;;;19.11;64.20;101087.00;4893101;28;20643;-84
2023/04/29 10:16:26;;;;;;;34.60;25.00;;;;;;;19.08;64.69;101076.56;4888282;28;20073;-83
2023/04/29 10:18:55;;;;;;;32.38;24.08;;;;;;;19.14;65.26;101086.63;4889426;28;20454;-83
2023/04/29 10:21:31;;;;;;;38.58;25.65;;;;;;;19.55;65.69;101153.59;4898296;29;20055;-83
2023/04/29 10:24:07;;;;;;;33.42;26.35;;;;;;;19.52;66.68;101137.81;4915014;28;20055;-82
2023/04/29 10:26:38;;;;;;;37.58;26.13;;;;;;;19.34;67.45;101127.34;4924267;28;20363;-81
2023/04/29 10:29:07;;;;;;;34.05;27.45;;;;;;;19.33;68.34;101129.19;4932701;28;20515;-82
2023/04/29 10:31:35;;;;;;;36.47;26.88;;;;;;;19.25;69.05;101105.06;4951447;28;20141;-82
2023/04/29 10:34:02;;;;;;;33.45;26.52;;;;;;;19.39;68.57;101114.16;4933068;28;20397;-81
2023/04/29 10:36:30;;;;;;;31.45;24.70;;;;;;;19.50;68.31;101126.38;4896356;28;20501;-82
2023/04/29 10:38:59;;;;;;;31.92;26.23;;;;;;;19.53;68.78;101121.44;4922114;28;20065;-81
2023/04/29 10:41:33;;;;;;;33.83;26.80;;;;;;;18.40;68.62;100941.94;4931669;28;20490;-82
2023/04/29 10:44:00;;;;;;;31.45;26.02;;;;;;;18.71;68.12;100989.41;4917743;28;20960;-81
2023/04/29 10:46:29;;;;;;;31.63;26.15;;;;;;;18.31;68.21;100914.28;4900464;28;20102;-81
2023/04/29 10:49:03;;;;;;;30.85;25.52;;;;;;;19.74;68.09;101126.16;4883451;28;20138;-83
2023/04/29 10:51:31;;;;;;;30.27;25.48;;;;;;;18.82;68.91;100966.69;4906636;29;20790;-81
2023/04/29 10:54:17;;;;;;;34.03;24.50;;;;;;;19.82;68.58;101111.75;4882528;29;20076;-79
2023/04/29 10:56:53;;;;;;;32.78;24.77;;;;;;;19.60;67.71;101040.75;4898306;29;20557;-81
2023/04/29 10:59:41;;;;;;;31.85;24.02;;;;;;;19.79;66.68;101104.88;4929565;28;20138;-83
2023/04/29 11:02:16;;;;;;;31.55;25.02;;;;;;;19.77;67.50;101092.63;4956575;28;20080;-81
2023/04/29 11:05:08;;;;;;;33.00;25.38;;;;;;;19.80;67.46;101092.25;4915242;28;20053;-82
2023/04/29 11:07:35;;;;;;;30.00;23.95;;;;;;;19.28;67.31;101002.41;4930879;28;20054;-83
2023/04/29 11:10:02;;;;;;;29.48;23.05;;;;;;;19.55;66.58;101040.47;4910862;28;20054;-83
2023/04/29 11:12:29;;;;;;;35.65;24.52;;;;;;;19.85;66.65;101079.06;4917267;28;20055;-83
2023/04/29 11:15:02;;;;;;;32.20;24.05;;;;;;;19.83;66.83;101087.34;4912337;28;20111;-82
2023/04/29 11:17:40;;;;;;;34.97;25.33;;;;;;;19.86;66.54;101067.28;4897326;29;20056;-81
2023/04/29 11:20:13;;;;;;;27.65;22.05;;;;;;;19.94;65.03;101055.56;4919432;29;20048;-83
2023/04/29 11:22:39;;;;;;;28.73;22.40;;;;;;;19.87;64.82;101043.84;4897428;29;20515;-83